Time;durP1;ratioP1;P1;durP2;ratioP2;P2;SDS_P1;SDS_P2;PMS_P1;PMS_P2;Temp;Humidity;BMP_temperature;BMP_pressure;BME280_temperature;BME280_humidity;BME280_pressure;Samples;Min_cycle;Max_cycle;Signal;HPM_P1;HPM_P2
2022/12/30 00:01:41;;;;;;;9.85;2.08;;;;;;;2.88;100.00;98644.91;4954623;29;20054;-86
2022/12/30 00:04:08;;;;;;;9.55;1.95;;;;;;;2.42;100.00;98612.19;4941684;28;20058;-86
2022/12/30 00:06:35;;;;;;;8.75;2.20;;;;;;;2.50;100.00;98611.91;4954689;29;20052;-86
2022/12/30 00:09:02;;;;;;;9.23;2.25;;;;;;;2.59;100.00;98647.72;4955881;28;20078;-86
2022/12/30 00:11:32;;;;;;;8.50;2.10;;;;;;;2.37;100.00;98566.78;4954131;28;20047;-86
2022/12/30 00:34:00;;;;;;;8.95;1.80;;;;;;;2.68;100.00;98640.53;4943849;28;20050;-86
2022/12/30 00:36:29;;;;;;;10.05;4.47;;;;;;;2.29;100.00;98567.09;4954174;28;20058;-86
2022/12/30 00:38:56;;;;;;;6.13;2.08;;;;;;;2.79;100.00;98653.84;4955310;28;20106;-85
2022/12/30 00:44:08;;;;;;;10.70;2.05;;;;;;;2.37;100.00;98571.94;4955195;28;20066;-85
2022/12/30 00:46:38;;;;;;;3.38;1.67;;;;;;;2.23;100.00;98572.47;4950390;29;20402;-86
2022/12/30 00:57:20;;;;;;;6.63;1.60;;;;;;;2.14;100.00;98554.75;4950581;28;20047;-86
2022/12/30 00:59:47;;;;;;;8.88;2.40;;;;;;;2.36;100.00;98583.19;4949450;28;20106;-84
2022/12/30 01:02:13;;;;;;;9.38;2.85;;;;;;;2.29;100.00;98564.50;4966319;28;20056;-85
2022/12/30 01:04:40;;;;;;;8.05;1.80;;;;;;;2.31;100.00;98583.34;4968343;28;20047;-87
2022/12/30 01:07:07;;;;;;;6.35;1.52;;;;;;;2.20;100.00;98564.84;4952907;29;20078;-86
2022/12/30 01:09:35;;;;;;;6.07;1.73;;;;;;;2.22;100.00;98569.06;4953503;29;20051;-86
2022/12/30 01:12:09;;;;;;;5.15;1.60;;;;;;;2.33;100.00;98570.38;4953587;28;20059;-87
2022/12/30 01:14:43;;;;;;;7.97;1.50;;;;;;;2.49;100.00;98605.03;4955034;28;20106;-86
2022/12/30 01:17:16;;;;;;;5.75;1.75;;;;;;;2.02;100.00;98518.19;4953838;29;20058;-85
2022/12/30 01:19:43;;;;;;;5.60;1.70;;;;;;;2.15;100.00;98544.38;4965607;28;20062;-86
2022/12/30 01:22:10;;;;;;;6.88;1.77;;;;;;;2.15;100.00;98552.13;4954686;28;20473;-85
2022/12/30 01:24:37;;;;;;;5.53;2.25;;;;;;;2.47;100.00;98607.69;4952306;28;20055;-85
2022/12/30 01:27:05;;;;;;;5.35;1.70;;;;;;;2.25;100.00;98565.53;4957173;28;20066;-86
2022/12/30 01:29:36;;;;;;;12.73;2.63;;;;;;;2.39;100.00;98604.56;4953646;29;20051;-86
2022/12/30 01:32:09;;;;;;;9.77;2.00;;;;;;;2.27;100.00;98564.56;4946442;28;20139;-85
2022/12/30 01:34:36;;;;;;;12.48;3.03;;;;;;;2.42;100.00;98570.03;4947302;29;20446;-85
2022/12/30 01:37:04;;;;;;;9.82;2.83;;;;;;;2.51;100.00;98540.41;4966861;28;20051;-86
2022/12/30 01:39:31;;;;;;;13.95;2.17;;;;;;;2.66;100.00;98575.97;4953147;29;20482;-85
2022/12/30 01:41:58;;;;;;;14.43;2.42;;;;;;;2.86;100.00;98577.75;4953744;28;20055;-85
2022/12/30 01:44:52;;;;;;;7.95;2.00;;;;;;;2.93;100.00;98591.28;4953838;28;20055;-84
2022/12/30 01:47:42;;;;;;;;;;;;;;;2.98;100.00;98585.00;4944065;29;20482;-84
2022/12/30 01:50:12;;;;;;;8.80;2.15;;;;;;;2.93;100.00;98570.59;4954646;28;20340;-86
2022/12/30 01:53:07;;;;;;;11.10;2.17;;;;;;;2.94;100.00;98560.19;4964379;28;20043;-86
2022/12/30 01:55:39;;;;;;;7.63;1.80;;;;;;;3.03;100.00;98548.63;4956158;28;20055;-86
2022/12/30 01:58:11;;;;;;;9.43;2.07;;;;;;;2.75;100.00;98492.06;4948710;28;20205;-86
2022/12/30 02:00:37;;;;;;;10.98;2.58;;;;;;;2.57;100.00;98455.75;4950142;29;20059;-86
2022/12/30 02:03:05;;;;;;;8.30;3.05;;;;;;;2.88;100.00;98497.56;4953159;28;20055;-86
2022/12/30 02:05:37;;;;;;;9.95;1.75;;;;;;;3.21;100.00;98534.09;4956401;29;20488;-85
2022/12/30 02:08:06;;;;;;;7.28;2.08;;;;;;;3.14;100.00;98509.41;4956994;28;20051;-85
2022/12/30 02:10:36;;;;;;;5.90;1.70;;;;;;;3.09;100.00;98501.81;4957438;28;20485;-86
2022/12/30 02:13:03;;;;;;;7.97;1.88;;;;;;;2.89;100.00;98469.06;4956754;28;20051;-86
2022/12/30 02:15:42;;;;;;;7.40;1.83;;;;;;;3.16;100.00;98513.59;4957975;28;20062;-86
2022/12/30 02:18:43;;;;;;;5.68;1.50;;;;;;;3.34;100.00;98516.28;4960561;28;20059;-86
2022/12/30 02:21:55;;;;;;;9.18;2.00;;;;;;;3.31;100.00;98509.50;4961187;28;20047;-85
2022/12/30 02:25:16;;;;;;;6.45;1.65;;;;;;;3.23;100.00;98501.25;4965901;28;20051;-86
2022/12/30 02:27:54;;;;;;;6.40;1.70;;;;;;;3.23;100.00;98496.06;4929659;29;20055;-85
2022/12/30 02:30:50;;;;;;;6.32;1.60;;;;;;;2.89;100.00;98458.72;4943443;28;20138;-86
2022/12/30 02:33:47;;;;;;;8.48;1.98;;;;;;;3.19;100.00;98484.19;4954149;28;20055;-86
2022/12/30 02:36:36;;;;;;;5.68;1.55;;;;;;;3.31;100.00;98477.63;4963990;28;20047;-86
2022/12/30 02:39:11;;;;;;;11.32;3.35;;;;;;;3.01;100.00;98413.41;4972261;28;20059;-87
2022/12/30 02:44:52;;;;;;;8.60;2.25;;;;;;;2.99;100.00;98390.22;4956796;28;20055;-85
2022/12/30 02:47:43;;;;;;;10.20;2.22;;;;;;;3.45;100.00;98435.63;4963681;28;20054;-86
2022/12/30 02:53:06;;;;;;;15.57;2.10;;;;;;;3.52;100.00;98414.56;4956742;28;20051;-86
2022/12/30 02:55:32;;;;;;;11.05;1.85;;;;;;;3.57;100.00;98391.06;4955924;28;20047;-85
2022/12/30 02:57:59;;;;;;;9.15;2.00;;;;;;;3.48;100.00;98350.94;4956123;28;20047;-86
2022/12/30 03:03:57;;;;;;;7.13;1.90;;;;;;;4.02;100.00;98383.78;4956974;29;20055;-85
2022/12/30 03:06:54;;;;;;;8.40;2.10;;;;;;;4.13;100.00;98369.41;4954495;28;20050;-85
2022/12/30 03:09:30;;;;;;;8.02;2.10;;;;;;;4.11;100.00;98358.28;4955974;29;20465;-85
2022/12/30 03:12:08;;;;;;;7.82;1.88;;;;;;;4.11;100.00;98328.97;4955258;28;20059;-85
2022/12/30 03:14:48;;;;;;;8.40;2.13;;;;;;;4.17;100.00;98323.47;4967946;28;20051;-85
2022/12/30 03:17:22;;;;;;;6.13;1.70;;;;;;;4.09;100.00;98290.19;4960849;28;20401;-85
2022/12/30 03:19:54;;;;;;;7.57;1.90;;;;;;;3.96;100.00;98264.06;4955299;28;20054;-85
2022/12/30 03:27:58;;;;;;;6.32;1.63;;;;;;;4.14;100.00;98248.50;4950373;28;20498;-85
2022/12/30 03:30:26;;;;;;;8.15;2.13;;;;;;;3.93;100.00;98216.78;4954329;29;20047;-85
2022/12/30 03:32:54;;;;;;;13.48;2.45;;;;;;;3.97;100.00;98192.41;4955394;28;20093;-85
2022/12/30 03:35:24;;;;;;;7.53;2.00;;;;;;;4.30;100.00;98220.06;4954232;28;20047;-84
2022/12/30 03:37:55;;;;;;;12.23;2.30;;;;;;;4.37;100.00;98224.88;4954748;28;20088;-85
2022/12/30 03:40:40;;;;;;;10.25;2.15;;;;;;;4.36;100.00;98186.09;4950809;28;20062;-85
2022/12/30 03:43:09;;;;;;;13.90;2.50;;;;;;;4.36;100.00;98168.78;4948681;29;20055;-85
2022/12/30 03:45:36;;;;;;;18.67;3.22;;;;;;;4.46;100.00;98143.22;4937450;29;20047;-85
2022/12/30 03:48:03;;;;;;;15.23;2.70;;;;;;;4.90;100.00;98186.59;4950935;28;20051;-85
2022/12/30 03:50:30;;;;;;;14.60;3.95;;;;;;;4.38;100.00;98115.13;4939232;28;20056;-86
2022/12/30 03:52:57;;;;;;;19.38;3.55;;;;;;;4.85;100.00;98144.53;4945328;28;20058;-86
2022/12/30 03:55:23;;;;;;;12.57;2.60;;;;;;;5.12;100.00;98151.69;4969902;28;20043;-85
2022/12/30 03:57:50;;;;;;;12.60;2.92;;;;;;;4.68;100.00;98109.19;4961325;28;20052;-85
2022/12/30 04:00:18;;;;;;;12.73;2.75;;;;;;;4.75;100.00;98101.91;4948752;28;20062;-86
2022/12/30 04:02:44;;;;;;;12.65;2.00;;;;;;;4.79;100.00;98110.34;4955480;28;20070;-86
2022/12/30 04:05:11;;;;;;;5.78;1.80;;;;;;;4.41;100.00;98045.91;4953697;28;20139;-86
2022/12/30 04:07:38;;;;;;;7.90;3.67;;;;;;;4.78;100.00;98091.38;4947454;28;20043;-85
2022/12/30 04:10:05;;;;;;;7.53;1.95;;;;;;;4.64;100.00;98060.19;4953538;29;20044;-85
2022/12/30 04:12:32;;;;;;;11.18;2.20;;;;;;;4.54;100.00;98058.09;4954086;28;20058;-85
2022/12/30 04:14:59;;;;;;;13.32;2.40;;;;;;;4.59;100.00;98067.41;4948009;28;20059;-85
2022/12/30 04:17:26;;;;;;;8.32;2.25;;;;;;;4.73;100.00;98073.47;4946227;28;20405;-85
2022/12/30 04:19:52;;;;;;;7.22;1.90;;;;;;;4.63;100.00;98063.72;4954876;28;20055;-84
2022/12/30 04:22:19;;;;;;;6.05;1.60;;;;;;;4.35;100.00;98027.19;4953929;28;20047;-85
2022/12/30 04:24:46;;;;;;;9.98;2.28;;;;;;;4.51;100.00;98076.41;4939701;28;20052;-84
2022/12/30 04:27:13;;;;;;;7.38;1.40;;;;;;;4.53;100.00;98056.44;4952442;28;20662;-85
2022/12/30 04:29:39;;;;;;;5.85;1.38;;;;;;;4.21;100.00;98023.72;4954299;28;20055;-85
2022/12/30 04:32:06;;;;;;;8.25;1.73;;;;;;;4.29;100.00;98004.22;4952382;29;20059;-84
2022/12/30 04:34:33;;;;;;;11.88;1.98;;;;;;;4.34;100.00;98033.31;4954710;28;20125;-84
2022/12/30 04:37:01;;;;;;;5.45;1.48;;;;;;;4.18;100.00;97978.09;4951713;28;20043;-83
2022/12/30 04:39:27;;;;;;;9.52;3.85;;;;;;;4.06;100.00;98005.50;4968924;28;20069;-84
2022/12/30 04:41:55;;;;;;;6.78;1.33;;;;;;;3.87;100.00;97984.94;4953153;28;20863;-84
2022/12/30 04:44:21;;;;;;;8.82;1.70;;;;;;;3.62;100.00;97915.56;4952692;28;20058;-83
2022/12/30 04:46:48;;;;;;;7.78;2.28;;;;;;;4.19;100.00;97966.81;4952151;28;20050;-83
2022/12/30 04:49:15;;;;;;;7.35;1.88;;;;;;;4.29;100.00;97980.09;4954418;28;20051;-83
2022/12/30 04:51:42;;;;;;;5.63;1.40;;;;;;;3.89;100.00;97946.03;4954246;28;20062;-83
2022/12/30 04:54:08;;;;;;;13.98;1.98;;;;;;;3.93;100.00;97963.06;4953259;28;20089;-83
2022/12/30 04:56:35;;;;;;;4.43;1.63;;;;;;;3.65;100.00;97911.97;4952911;28;20050;-84
2022/12/30 04:59:02;;;;;;;7.80;1.63;;;;;;;3.72;100.00;97893.47;4953703;28;20351;-82
2022/12/30 05:01:29;;;;;;;9.70;1.83;;;;;;;3.88;100.00;97887.41;4951770;28;20405;-82
2022/12/30 05:03:56;;;;;;;8.60;2.05;;;;;;;3.74;100.00;97849.38;4953527;28;20054;-82
2022/12/30 05:06:22;;;;;;;11.48;3.75;;;;;;;4.09;100.00;97878.47;4953312;28;20105;-82
2022/12/30 05:08:49;;;;;;;10.82;2.00;;;;;;;4.19;100.00;97869.22;4952623;28;20109;-82
2022/12/30 05:11:16;;;;;;;7.22;1.70;;;;;;;4.14;100.00;97858.31;4952049;29;20051;-82
2022/12/30 05:13:42;;;;;;;10.15;1.90;;;;;;;3.88;100.00;97795.09;4938013;29;20052;-82
2022/12/30 05:16:13;;;;;;;12.25;1.55;;;;;;;4.36;100.00;97820.81;4941846;28;20472;-82
2022/12/30 05:18:40;;;;;;;9.70;2.30;;;;;;;4.45;100.00;97786.59;4952240;29;20055;-82
2022/12/30 05:21:06;;;;;;;9.77;2.28;;;;;;;4.49;100.00;97795.00;4952118;29;20051;-82
2022/12/30 05:26:19;;;;;;;9.82;2.08;;;;;;;4.31;100.00;97711.47;4941773;28;20062;-83
2022/12/30 05:28:47;;;;;;;11.10;2.13;;;;;;;4.85;100.00;97737.50;4952557;29;20066;-84
2022/12/30 05:31:15;;;;;;;16.02;3.13;;;;;;;4.93;100.00;97721.47;4958580;28;20055;-83
2022/12/30 05:33:42;;;;;;;16.15;3.28;;;;;;;5.13;100.00;97713.28;4952026;29;20059;-84
2022/12/30 05:36:10;;;;;;;25.27;5.63;;;;;;;5.04;100.00;97658.56;4948871;28;20043;-84
2022/12/30 05:38:37;;;;;;;10.02;2.72;;;;;;;5.60;100.00;97690.38;4943368;28;20055;-83
2022/12/30 05:41:04;;;;;;;14.48;3.42;;;;;;;5.53;100.00;97659.72;4949612;28;20055;-84
2022/12/30 05:43:41;;;;;;;18.58;4.57;;;;;;;5.53;100.00;97670.13;4952710;28;20047;-83
2022/12/30 05:46:08;;;;;;;22.75;3.45;;;;;;;5.75;100.00;97633.97;4952575;28;20493;-84
2022/12/30 05:48:35;;;;;;;31.85;5.43;;;;;;;5.64;100.00;97634.72;4946065;28;20048;-84
2022/12/30 05:51:01;;;;;;;26.35;4.40;;;;;;;5.96;100.00;97629.13;4947581;28;20390;-84
2022/12/30 05:53:28;;;;;;;22.45;4.57;;;;;;;5.85;100.00;97590.88;4952524;28;20051;-83
2022/12/30 05:55:55;;;;;;;19.58;6.45;;;;;;;5.87;100.00;97552.66;4967387;28;20054;-83
2022/12/30 05:58:21;;;;;;;28.98;4.95;;;;;;;5.91;100.00;97574.06;4952031;28;20060;-83
2022/12/30 06:00:48;;;;;;;22.90;4.45;;;;;;;5.83;100.00;97535.66;4953105;28;20044;-83
2022/12/30 06:03:16;;;;;;;26.65;5.35;;;;;;;5.87;100.00;97549.25;4952280;28;20091;-83
2022/12/30 06:05:43;;;;;;;25.58;4.45;;;;;;;5.80;100.00;97522.03;4955075;28;20070;-83
2022/12/30 06:08:10;;;;;;;30.60;5.40;;;;;;;5.86;100.00;97493.91;4951405;28;20481;-84
2022/12/30 06:10:37;;;;;;;23.50;4.30;;;;;;;6.05;100.00;97524.59;4939175;28;20413;-84
2022/12/30 06:13:03;;;;;;;30.63;4.65;;;;;;;5.73;100.00;97461.94;4952342;28;20184;-83
2022/12/30 06:15:30;;;;;;;25.13;4.85;;;;;;;5.85;100.00;97447.25;4952874;28;20051;-83
2022/12/30 06:17:57;;;;;;;22.70;4.50;;;;;;;6.07;100.00;97452.63;4949462;28;20051;-84
2022/12/30 06:20:24;;;;;;;23.25;6.45;;;;;;;5.97;100.00;97443.00;4967220;28;20047;-83
2022/12/30 06:22:51;;;;;;;24.77;6.18;;;;;;;5.85;100.00;97390.97;4965716;28;20418;-83
2022/12/30 06:25:17;;;;;;;18.77;5.32;;;;;;;5.77;100.00;97356.09;4946804;28;20063;-83
2022/12/30 06:27:44;;;;;;;23.10;4.53;;;;;;;5.93;100.00;97381.78;4948052;28;20492;-83
2022/12/30 06:30:12;;;;;;;25.67;5.38;;;;;;;6.32;100.00;97393.69;4959343;28;20070;-83
2022/12/30 06:32:38;;;;;;;28.83;5.00;;;;;;;6.43;100.00;97372.09;4953883;28;20047;-83
2022/12/30 06:35:06;;;;;;;33.50;6.47;;;;;;;6.44;100.00;97376.34;4948587;28;20059;-84
2022/12/30 06:37:33;;;;;;;30.02;5.95;;;;;;;6.42;100.00;97352.25;4948828;28;20043;-83
2022/12/30 06:40:00;;;;;;;39.03;8.50;;;;;;;6.05;100.00;97301.25;4946176;28;20131;-83
2022/12/30 06:42:26;;;;;;;25.73;5.50;;;;;;;6.26;100.00;97313.59;4947203;28;20608;-83
2022/12/30 06:44:53;;;;;;;33.75;6.53;;;;;;;6.20;100.00;97260.31;4943401;28;20055;-83
2022/12/30 06:47:20;;;;;;;26.40;6.72;;;;;;;6.55;100.00;97324.41;4942951;29;20119;-83
2022/12/30 06:49:47;;;;;;;25.50;4.97;;;;;;;6.69;100.00;97291.31;4947543;28;20481;-82
2022/12/30 06:52:16;;;;;;;28.13;6.30;;;;;;;6.55;100.00;97267.22;4949720;28;20051;-83
2022/12/30 06:54:43;;;;;;;22.10;5.00;;;;;;;6.67;100.00;97275.03;4953328;28;20509;-83
2022/12/30 06:57:10;;;;;;;23.20;5.75;;;;;;;6.59;100.00;97291.22;4953929;29;20047;-83
2022/12/30 06:59:37;;;;;;;21.65;5.68;;;;;;;6.62;100.00;97225.97;4959744;28;20055;-84
2022/12/30 07:02:03;;;;;;;27.20;5.53;;;;;;;6.68;100.00;97238.50;4943815;28;20059;-84
2022/12/30 07:04:30;;;;;;;33.13;7.28;;;;;;;6.32;100.00;97219.63;4945758;28;20438;-84
2022/12/30 07:06:57;;;;;;;36.53;7.10;;;;;;;6.72;100.00;97247.72;4949644;28;20047;-83
2022/12/30 07:09:24;;;;;;;29.17;6.00;;;;;;;6.67;100.00;97230.81;4950495;28;20047;-84
2022/12/30 07:11:53;;;;;;;32.00;7.07;;;;;;;6.71;100.00;97219.22;4946196;28;20474;-82
2022/12/30 07:14:20;;;;;;;22.77;5.70;;;;;;;6.64;100.00;97165.13;4961535;28;20056;-83
2022/12/30 07:16:46;;;;;;;32.60;5.28;;;;;;;6.59;100.00;97154.25;4950961;28;20066;-83
2022/12/30 07:19:14;;;;;;;23.48;4.88;;;;;;;6.80;100.00;97177.75;4950362;28;20478;-83
2022/12/30 07:21:40;;;;;;;22.80;5.35;;;;;;;6.73;100.00;97178.34;4947136;28;20051;-84
2022/12/30 07:24:08;;;;;;;28.83;5.55;;;;;;;6.91;100.00;97163.91;4947324;29;20051;-84
2022/12/30 07:26:34;;;;;;;28.20;7.38;;;;;;;7.01;100.00;97177.81;4948293;29;20044;-84
2022/12/30 07:29:01;;;;;;;25.65;5.03;;;;;;;7.06;100.00;97163.63;4951911;28;20486;-84
2022/12/30 07:31:28;;;;;;;29.70;5.90;;;;;;;6.87;100.00;97144.28;4948734;28;20051;-84
2022/12/30 07:33:55;;;;;;;25.35;5.78;;;;;;;6.76;100.00;97131.31;4948466;28;20047;-85
2022/12/30 07:36:21;;;;;;;27.38;6.07;;;;;;;6.94;100.00;97160.22;4960080;28;20055;-85
2022/12/30 07:38:48;;;;;;;24.42;5.70;;;;;;;7.07;100.00;97139.28;4946647;28;20058;-85
2022/12/30 07:41:15;;;;;;;30.58;7.15;;;;;;;6.85;100.00;97109.75;4949408;28;20055;-85
2022/12/30 07:43:42;;;;;;;23.73;5.25;;;;;;;7.07;100.00;97100.25;4947935;28;20047;-85
2022/12/30 07:46:09;;;;;;;28.10;5.18;;;;;;;6.97;100.00;97113.97;4950036;28;20058;-85
2022/12/30 07:48:36;;;;;;;25.85;5.47;;;;;;;7.41;100.00;97152.94;4950993;28;20047;-85
2022/12/30 07:51:11;;;;;;;15.98;4.38;;;;;;;7.45;100.00;97119.69;4961141;28;20055;-84
2022/12/30 07:53:38;;;;;;;28.58;5.88;;;;;;;7.40;100.00;97146.94;4946275;28;20114;-85
2022/12/30 07:56:08;;;;;;;29.02;6.43;;;;;;;7.22;100.00;97128.44;4948957;28;20058;-84
2022/12/30 07:58:35;;;;;;;20.13;3.92;;;;;;;7.25;100.00;97113.53;4946913;29;20047;-84
2022/12/30 08:01:06;;;;;;;25.80;5.53;;;;;;;7.77;100.00;97150.84;4944815;28;20636;-83
2022/12/30 08:03:33;;;;;;;21.02;4.35;;;;;;;7.74;100.00;97148.53;4943052;28;20158;-84
2022/12/30 08:06:12;;;;;;;23.40;4.70;;;;;;;7.83;100.00;97139.13;4942731;29;20043;-84
2022/12/30 08:08:40;;;;;;;22.25;4.78;;;;;;;7.69;100.00;97143.69;4945110;28;20055;-84
2022/12/30 08:11:08;;;;;;;21.13;4.68;;;;;;;7.68;100.00;97128.19;4944626;28;20066;-84
2022/12/30 08:13:38;;;;;;;26.00;5.13;;;;;;;7.86;100.00;97141.44;4963180;28;20125;-84
2022/12/30 08:16:11;;;;;;;18.65;3.92;;;;;;;8.02;100.00;97123.59;4940605;28;20418;-83
2022/12/30 08:18:37;;;;;;;24.83;4.63;;;;;;;7.73;100.00;97121.66;4942750;28;20779;-83
2022/12/30 08:21:09;;;;;;;24.50;4.70;;;;;;;7.66;100.00;97099.69;4949757;28;20063;-83
2022/12/30 08:23:36;;;;;;;15.52;3.80;;;;;;;7.68;100.00;97096.94;4962262;28;20055;-83
2022/12/30 08:26:12;;;;;;;16.90;2.92;;;;;;;7.91;100.00;97119.28;4949718;28;20055;-83
2022/12/30 08:28:39;;;;;;;14.23;3.72;;;;;;;7.64;100.00;97053.91;4944752;29;20051;-83
2022/12/30 08:31:17;;;;;;;17.42;3.33;;;;;;;7.97;100.00;97110.13;4962973;28;20047;-83
2022/12/30 08:33:44;;;;;;;11.93;2.88;;;;;;;7.71;100.00;97060.25;4949005;28;20055;-83
2022/12/30 08:36:14;;;;;;;8.65;2.00;;;;;;;8.10;100.00;97123.75;4946530;28;20055;-83
2022/12/30 08:38:44;;;;;;;10.23;2.70;;;;;;;7.87;100.00;97085.81;4947132;28;20047;-83
2022/12/30 08:41:14;;;;;;;8.48;2.53;;;;;;;8.13;100.00;97120.91;4944229;28;20055;-83
2022/12/30 08:43:41;;;;;;;6.65;1.52;;;;;;;8.09;100.00;97114.31;4947501;28;20154;-84
2022/12/30 08:46:08;;;;;;;9.55;1.95;;;;;;;7.81;100.00;97084.56;4937911;28;20059;-84
2022/12/30 08:48:35;;;;;;;6.35;1.58;;;;;;;7.85;100.00;97095.53;4943777;28;20387;-84
2022/12/30 08:51:03;;;;;;;5.15;1.50;;;;;;;7.82;100.00;97107.03;4940177;28;20055;-83
2022/12/30 08:53:31;;;;;;;6.22;1.40;;;;;;;7.93;100.00;97091.34;4955917;28;20055;-83
2022/12/30 08:56:04;;;;;;;4.35;1.48;;;;;;;8.30;100.00;97116.00;4945192;28;20058;-83
2022/12/30 08:58:32;;;;;;;2.63;1.23;;;;;;;7.95;100.00;97071.19;4963666;28;20565;-84
2022/12/30 09:01:05;;;;;;;3.53;1.00;;;;;;;7.98;100.00;97081.34;4943314;28;20465;-84
2022/12/30 09:03:32;;;;;;;;;;;;;;;8.27;100.00;97127.53;4946931;28;20145;-84
2022/12/30 09:05:59;;;;;;;3.28;1.17;;;;;;;8.01;100.00;97082.03;4947627;28;19926;-84
2022/12/30 09:08:28;;;;;;;3.42;0.90;;;;;;;8.10;100.00;97092.50;4943717;29;20092;-84
2022/12/30 09:11:07;;;;;;;2.47;1.08;;;;;;;8.34;100.00;97120.03;4944956;28;20051;-83
2022/12/30 09:13:37;;;;;;;2.90;1.02;;;;;;;8.20;100.00;97115.16;4946428;28;20057;-83
2022/12/30 09:16:06;;;;;;;2.75;1.08;;;;;;;7.96;100.00;97098.06;4946026;28;20055;-83
2022/12/30 09:18:33;;;;;;;2.30;1.00;;;;;;;7.46;100.00;97103.13;4935386;28;20544;-83
2022/12/30 09:21:00;;;;;;;1.55;1.00;;;;;;;7.41;100.00;97086.09;4945837;28;20055;-83
2022/12/30 09:23:27;;;;;;;1.65;1.00;;;;;;;7.16;100.00;97061.28;4947912;28;20058;-83
2022/12/30 09:25:54;;;;;;;3.17;1.33;;;;;;;7.18;100.00;97076.78;4947700;28;20102;-83
2022/12/30 09:28:20;;;;;;;2.10;0.95;;;;;;;6.94;100.00;97059.63;4944974;28;20406;-84
2022/12/30 09:30:47;;;;;;;1.85;0.90;;;;;;;7.09;100.00;97087.94;4945496;28;20055;-83
2022/12/30 09:33:14;;;;;;;1.42;1.00;;;;;;;7.07;100.00;97102.84;4945846;28;20055;-83
2022/12/30 09:35:41;;;;;;;1.23;0.82;;;;;;;6.76;100.00;97074.91;4937436;28;20055;-83
2022/12/30 09:38:08;;;;;;;1.92;0.90;;;;;;;6.87;100.00;97083.63;4937565;29;20449;-83
2022/12/30 09:40:56;;;;;;;2.08;1.00;;;;;;;6.79;100.00;97098.09;4946998;28;20051;-83
2022/12/30 09:44:00;;;;;;;1.40;1.00;;;;;;;6.93;100.00;97109.16;4934974;28;20058;-83
2022/12/30 09:46:48;;;;;;;1.08;0.82;;;;;;;6.64;100.00;97086.34;4945552;28;20097;-82
2022/12/30 09:49:32;;;;;;;1.63;0.90;;;;;;;6.70;100.00;97101.44;4959072;28;20062;-83
2022/12/30 09:52:27;;;;;;;1.70;0.90;;;;;;;6.72;100.00;97111.72;4959159;28;20059;-83
2022/12/30 09:55:02;;;;;;;1.92;0.90;;;;;;;6.44;100.00;97075.72;4944513;28;20059;-84
2022/12/30 09:57:32;;;;;;;1.00;0.90;;;;;;;6.50;100.00;97097.81;4946431;29;20043;-84
2022/12/30 10:00:07;;;;;;;1.10;0.85;;;;;;;6.72;100.00;97115.13;4945758;28;20074;-84
2022/12/30 10:03:03;;;;;;;2.17;1.00;;;;;;;6.70;100.00;97106.63;4947367;28;20073;-84
2022/12/30 10:06:09;;;;;;;1.58;1.00;;;;;;;6.78;100.00;97122.44;4940587;28;20567;-86
2022/12/30 10:09:31;;;;;;;1.33;0.80;;;;;;;6.80;100.00;97122.34;4954907;28;20064;-84
2022/12/30 10:12:19;;;;;;;1.10;0.90;;;;;;;6.75;100.00;97127.88;4869543;28;20061;-84
2022/12/30 10:15:37;;;;;;;1.10;0.90;;;;;;;7.02;100.00;97113.63;4945456;28;20051;-85
2022/12/30 10:19:04;;;;;;;2.10;1.00;;;;;;;6.64;100.00;97088.94;4939049;29;20047;-85
2022/12/30 10:21:59;;;;;;;1.20;0.90;;;;;;;6.73;100.00;97096.00;4931547;29;20147;-84
2022/12/30 10:24:35;;;;;;;1.10;0.90;;;;;;;6.66;100.00;97113.03;4941597;28;20051;-83
2022/12/30 10:27:13;;;;;;;0.80;0.80;;;;;;;6.30;100.00;97055.19;4946524;28;20071;-84
2022/12/30 10:29:43;;;;;;;1.02;0.90;;;;;;;6.79;100.00;97138.88;4950416;28;20129;-84
2022/12/30 10:32:21;;;;;;;1.50;1.00;;;;;;;6.63;100.00;97116.69;4948487;28;20055;-85
2022/12/30 10:35:00;;;;;;;1.30;1.00;;;;;;;6.55;100.00;97108.69;4950315;29;20394;-84
2022/12/30 10:37:32;;;;;;;1.75;0.90;;;;;;;6.74;100.00;97133.19;4952691;28;20707;-84
2022/12/30 10:40:01;;;;;;;1.02;0.90;;;;;;;6.43;100.00;97071.47;4946728;28;20051;-84
2022/12/30 10:42:56;;;;;;;0.98;0.82;;;;;;;6.86;100.00;97134.81;4937443;28;20063;-84
2022/12/30 10:45:32;;;;;;;1.42;0.93;;;;;;;6.85;100.00;97138.38;4955915;28;20052;-84
2022/12/30 10:48:08;;;;;;;1.98;1.10;;;;;;;6.84;100.00;97139.34;4950319;28;20129;-85
2022/12/30 10:50:38;;;;;;;1.98;1.10;;;;;;;6.55;100.00;97126.03;4948752;28;20066;-85
2022/12/30 10:53:12;;;;;;;2.00;1.00;;;;;;;6.58;100.00;97138.78;4948710;29;20058;-84
2022/12/30 10:55:53;;;;;;;2.40;1.02;;;;;;;6.55;100.00;97111.28;4950136;28;20055;-85
2022/12/30 10:58:27;;;;;;;1.80;1.00;;;;;;;6.72;100.00;97114.31;4946343;28;20058;-83
2022/12/30 11:00:54;;;;;;;1.40;0.90;;;;;;;6.61;100.00;97115.16;4943021;28;20697;-85
2022/12/30 11:03:31;;;;;;;1.27;0.93;;;;;;;6.43;100.00;97084.47;4962322;28;20055;-85
2022/12/30 11:06:14;;;;;;;1.90;1.00;;;;;;;6.61;100.00;97084.78;4934674;28;20062;-83
2022/12/30 11:08:40;;;;;;;1.00;0.90;;;;;;;6.54;100.00;97088.81;4947791;28;20529;-84
2022/12/30 11:11:08;;;;;;;1.00;0.80;;;;;;;6.44;100.00;97072.31;4945676;28;20055;-84
2022/12/30 11:16:32;;;;;;;1.55;0.93;;;;;;;6.62;100.00;97091.66;4948725;28;20054;-85
2022/12/30 11:19:02;;;;;;;1.25;0.90;;;;;;;6.54;100.00;97069.81;4959051;28;20561;-85
2022/12/30 11:21:38;;;;;;;4.65;1.02;;;;;;;6.51;100.00;97070.88;4945829;28;20148;-85
2022/12/30 11:24:05;;;;;;;2.25;1.08;;;;;;;6.56;100.00;97045.34;4940867;28;20059;-85
2022/12/30 11:26:33;;;;;;;1.75;1.00;;;;;;;6.44;100.00;97069.69;4950385;29;20557;-85
2022/12/30 11:29:13;;;;;;;1.63;1.00;;;;;;;6.31;100.00;97040.47;4946690;28;20063;-86
2022/12/30 11:31:45;;;;;;;1.40;0.90;;;;;;;6.37;100.00;97063.34;4937782;28;20059;-85
2022/12/30 11:34:31;;;;;;;1.98;1.00;;;;;;;6.43;100.00;97060.28;4951665;28;20106;-86
2022/12/30 11:36:59;;;;;;;1.63;1.00;;;;;;;5.93;100.00;96994.91;4947910;28;20110;-87
2022/12/30 11:39:32;;;;;;;1.15;0.90;;;;;;;6.19;100.00;96982.50;4951162;28;20512;-86
2022/12/30 11:42:01;;;;;;;;;;;;;;;6.34;100.00;96998.63;4950173;28;20051;-86
2022/12/30 11:44:31;;;;;;;1.35;0.90;;;;;;;6.18;100.00;96973.03;4952077;28;20337;-86
2022/12/30 11:47:06;;;;;;;1.85;0.90;;;;;;;6.12;100.00;96937.19;4950937;28;20059;-86
2022/12/30 11:49:47;;;;;;;4.38;1.50;;;;;;;6.27;100.00;96913.41;4951474;28;20047;-85
2022/12/30 11:52:32;;;;;;;1.27;0.90;;;;;;;5.96;100.00;96841.50;4945017;29;20413;-86
2022/12/30 11:55:03;;;;;;;1.33;0.90;;;;;;;6.19;100.00;96892.41;4948508;29;20062;-85
2022/12/30 11:57:33;;;;;;;1.30;0.90;;;;;;;6.11;100.00;96914.75;4942983;28;20152;-86
2022/12/30 12:00:05;;;;;;;0.93;0.82;;;;;;;6.46;100.00;96956.91;4938619;28;20122;-85
2022/12/30 12:02:38;;;;;;;2.28;1.08;;;;;;;6.43;100.00;96969.31;4957221;28;20055;-86
2022/12/30 12:05:24;;;;;;;1.98;1.10;;;;;;;6.56;100.00;96982.16;4940006;28;20147;-85
2022/12/30 12:07:55;;;;;;;1.70;1.10;;;;;;;6.27;100.00;96960.16;4944126;29;20118;-85
2022/12/30 12:10:34;;;;;;;1.25;0.90;;;;;;;6.19;100.00;96952.16;4948223;28;20110;-86
2022/12/30 12:13:09;;;;;;;2.88;1.40;;;;;;;6.14;100.00;96943.88;4942646;29;20051;-85
2022/12/30 12:15:42;;;;;;;1.58;1.00;;;;;;;6.32;100.00;96945.97;4940723;28;20805;-86
2022/12/30 12:18:13;;;;;;;;;;;;;;;6.25;100.00;96951.66;4938803;28;20048;-85
2022/12/30 12:20:46;;;;;;;2.35;1.10;;;;;;;6.23;100.00;96937.13;4938817;28;19930;-86
2022/12/30 12:23:13;;;;;;;3.00;1.63;;;;;;;6.28;100.00;96940.19;4949406;28;20058;-86
2022/12/30 12:25:48;;;;;;;2.05;1.00;;;;;;;6.07;100.00;96903.78;4937822;29;20055;-86
2022/12/30 12:28:15;;;;;;;1.60;0.90;;;;;;;6.32;100.00;96935.56;4944911;28;20058;-86
2022/12/30 12:30:45;;;;;;;1.75;1.10;;;;;;;6.47;100.00;96947.31;4942277;28;20051;-86
2022/12/30 12:33:36;;;;;;;1.00;0.90;;;;;;;6.47;100.00;96937.75;4938107;28;20130;-87
2022/12/30 12:36:27;;;;;;;1.27;1.00;;;;;;;6.59;100.00;96896.94;4945558;28;20413;-87
2022/12/30 12:39:01;;;;;;;2.65;1.20;;;;;;;6.61;100.00;96907.22;4941239;29;20058;-87
2022/12/30 12:41:36;;;;;;;1.90;1.00;;;;;;;6.74;100.00;96931.22;4945821;29;20117;-87
2022/12/30 12:44:32;;;;;;;2.20;1.17;;;;;;;6.83;100.00;96916.66;4956672;28;20067;-87
2022/12/30 12:47:30;;;;;;;1.35;0.90;;;;;;;6.82;100.00;96910.63;4940098;28;20056;-84